VIR208 EGLL-RKSI
Flight info
| Callsign | VIR208 |
|---|---|
| Flight time | N/A |
| Altitude | 33000 |
| Route | DET L6 DVR UL9 KONAN UL607 KOK DCT MATUG DCT BOMBI DCT TENLO DCT DEXIT DCT PESAT DCT DEGET DCT LUGEB DCT UDROS UM859 BIMVO/N0494F350 UM859 KARDE UN644 ROLIN DCT TETRO DCT BARAD M747 LUSAL N199 RASAM L88 METKA B476 TIMGA A480 OTBOR/K0915F350 N147 TRK Z621 ARBOL M610 TIPSA/K0906F370 M610 RULAD/K0904S1130 A343 POSOT B215 FKG W188 GOVSA W66 DKO W69 HUR B339 LADIX W34 VAPGU W100 ORAVA W201 UNSEK A326 DONVO G597 AGAVO/N0486F390 Y644 REBIT REBIT2A |
| Aircraft | B789/H-SDE1E2E3FGHIJ2J3J4J5M1RWXY/LB1D1 |
Departure
| Time | 2026-05-06 22:47 |
|---|---|
| Airport | London Heathrow Airport (EGLL) |
Arrival
| Time | N/A |
|---|---|
| Airport | Incheon International Airport (RKSI) |
| Time | Latitude | Longitude | Altitude | Speed | Heading |
|---|---|---|---|---|---|
| 2026-05-06 22:28 | 51.47397 | -0.46236 | 95 ft | 0 kts | 236° |
| 2026-05-06 22:36 | 51.47404 | -0.46220 | 93 ft | 4 kts | 236° |
| 2026-05-06 22:36 | 51.47417 | -0.46189 | 93 ft | 2 kts | 235° |
| 2026-05-06 22:36 | 51.47427 | -0.46158 | 93 ft | 4 kts | 265° |
| 2026-05-06 22:37 | 51.47424 | -0.46131 | 94 ft | 4 kts | 314° |
| 2026-05-06 22:37 | 51.47405 | -0.46107 | 91 ft | 4 kts | 325° |
| 2026-05-06 22:37 | 51.47393 | -0.46093 | 94 ft | 0 kts | 325° |
| 2026-05-06 22:39 | 51.47393 | -0.46094 | 91 ft | 0 kts | 325° |
| 2026-05-06 22:40 | 51.47412 | -0.46115 | 92 ft | 8 kts | 325° |
| 2026-05-06 22:40 | 51.47467 | -0.46175 | 95 ft | 9 kts | 325° |
| 2026-05-06 22:40 | 51.47509 | -0.46246 | 95 ft | 8 kts | 295° |
| 2026-05-06 22:40 | 51.47516 | -0.46360 | 91 ft | 15 kts | 270° |
| 2026-05-06 22:41 | 51.47503 | -0.46750 | 94 ft | 19 kts | 255° |
| 2026-05-06 22:41 | 51.47443 | -0.46890 | 94 ft | 13 kts | 178° |
| 2026-05-06 22:41 | 51.47354 | -0.46871 | 94 ft | 13 kts | 172° |
| 2026-05-06 22:42 | 51.47249 | -0.46866 | 93 ft | 20 kts | 181° |
| 2026-05-06 22:42 | 51.47089 | -0.46865 | 91 ft | 24 kts | 179° |
| 2026-05-06 22:42 | 51.46928 | -0.46862 | 93 ft | 23 kts | 179° |
| 2026-05-06 22:42 | 51.46774 | -0.46861 | 94 ft | 22 kts | 180° |
| 2026-05-06 22:43 | 51.46657 | -0.46907 | 95 ft | 13 kts | 248° |
| 2026-05-06 22:43 | 51.46656 | -0.47089 | 94 ft | 21 kts | 270° |
| 2026-05-06 22:43 | 51.46656 | -0.47331 | 94 ft | 21 kts | 270° |
| 2026-05-06 22:43 | 51.46656 | -0.47563 | 94 ft | 20 kts | 270° |
| 2026-05-06 22:44 | 51.46654 | -0.47808 | 91 ft | 22 kts | 269° |
| 2026-05-06 22:44 | 51.46654 | -0.48058 | 91 ft | 22 kts | 270° |
| 2026-05-06 22:44 | 51.46653 | -0.48298 | 93 ft | 21 kts | 269° |
| 2026-05-06 22:44 | 51.46652 | -0.48528 | 91 ft | 20 kts | 269° |
| 2026-05-06 22:45 | 51.46633 | -0.48733 | 94 ft | 17 kts | 227° |
| 2026-05-06 22:45 | 51.46531 | -0.48787 | 92 ft | 15 kts | 171° |
| 2026-05-06 22:45 | 51.46478 | -0.48688 | 94 ft | 11 kts | 95° |
| 2026-05-06 22:45 | 51.46478 | -0.48605 | 92 ft | 4 kts | 90° |
| 2026-05-06 22:46 | 51.46478 | -0.48389 | 92 ft | 44 kts | 90° |
| 2026-05-06 22:46 | 51.46482 | -0.47578 | 90 ft | 99 kts | 90° |
| 2026-05-06 22:46 | 51.46494 | -0.46236 | 93 ft | 143 kts | 89° |
| 2026-05-06 22:46 | 51.46494 | -0.44436 | 151 ft | 174 kts | 93° |
| 2026-05-06 22:47 | 51.46473 | -0.42635 | 758 ft | 153 kts | 92° |
| 2026-05-06 22:47 | 51.46393 | -0.40822 | 790 ft | 176 kts | 99° |
| 2026-05-06 22:47 | 51.45646 | -0.39100 | 743 ft | 199 kts | 135° |
| 2026-05-06 22:47 | 51.44818 | -0.37352 | 1140 ft | 201 kts | 109° |
| 2026-05-06 22:48 | 51.44458 | -0.35214 | 1696 ft | 195 kts | 105° |
| 2026-05-06 22:48 | 51.44027 | -0.33186 | 2038 ft | 203 kts | 108° |
| 2026-05-06 22:48 | 51.43525 | -0.30904 | 2076 ft | 225 kts | 108° |
| 2026-05-06 22:48 | 51.43007 | -0.28454 | 2505 ft | 237 kts | 105° |
| 2026-05-06 22:49 | 51.42677 | -0.25749 | 2676 ft | 258 kts | 101° |
| 2026-05-06 22:49 | 51.42257 | -0.22964 | 3374 ft | 257 kts | 102° |
| 2026-05-06 22:49 | 51.41847 | -0.20134 | 3916 ft | 262 kts | 101° |
| 2026-05-06 22:49 | 51.41466 | -0.17310 | 4506 ft | 265 kts | 101° |
| 2026-05-06 22:50 | 51.41073 | -0.14407 | 5125 ft | 268 kts | 102° |
| 2026-05-06 22:50 | 51.40662 | -0.11490 | 5715 ft | 270 kts | 103° |
| 2026-05-06 22:50 | 51.40241 | -0.08537 | 6315 ft | 273 kts | 103° |
| 2026-05-06 22:50 | 51.39822 | -0.05566 | 6903 ft | 274 kts | 103° |
| 2026-05-06 22:51 | 51.39400 | -0.02572 | 7418 ft | 277 kts | 102° |
| 2026-05-06 22:51 | 51.38970 | 0.00467 | 7949 ft | 281 kts | 102° |